createdAt,value
2018-11-22T12:18:14.789Z,101709.67
2018-11-22T12:20:44.737Z,101704.26
2018-11-22T12:23:14.472Z,101703.30
2018-11-22T12:25:44.352Z,101696.70
2018-11-22T12:28:14.299Z,101697.70
2018-11-22T12:30:44.127Z,101695.87
2018-11-22T12:33:19.885Z,101696.23
2018-11-22T12:35:55.562Z,101690.34
2018-11-22T12:38:30.445Z,101692.55
2018-11-22T12:41:00.186Z,101697.97
2018-11-22T12:43:30.043Z,101685.84
2018-11-22T12:45:59.884Z,101691.75
2018-11-22T12:48:29.726Z,101691.30
2018-11-22T12:50:59.509Z,101688.64
2018-11-22T12:53:29.602Z,101687.08
2018-11-22T12:55:59.902Z,101685.09
2018-11-22T12:58:29.716Z,101679.48
2018-11-22T13:01:00.135Z,101684.85
2018-11-22T13:03:30.040Z,101675.91
2018-11-22T13:06:00.000Z,101681.45
2018-11-22T13:08:30.074Z,101683.47
2018-11-22T13:10:59.804Z,101677.66
2018-11-22T13:13:29.980Z,101676.84
2018-11-22T13:15:59.815Z,101669.73
2018-11-22T13:18:29.612Z,101668.14
2018-11-22T13:20:59.494Z,101668.98
2018-11-22T13:23:29.237Z,101673.20
2018-11-22T13:25:59.352Z,101668.22
2018-11-22T13:28:29.960Z,101670.63
2018-11-22T13:30:59.817Z,101667.66
2018-11-22T13:33:29.707Z,101664.73
2018-11-22T13:36:00.143Z,101670.84
2018-11-22T13:38:30.556Z,101672.17
2018-11-22T13:41:00.490Z,101667.87
2018-11-22T13:43:30.273Z,101670.45
2018-11-22T13:46:00.116Z,101670.97
2018-11-22T13:48:29.980Z,101668.53
2018-11-22T13:50:59.935Z,101667.48
2018-11-22T13:53:29.737Z,101670.64
2018-11-22T13:55:59.840Z,101667.39
2018-11-22T13:58:29.717Z,101673.74
2018-11-22T14:00:59.465Z,101680.30
2018-11-22T14:03:29.267Z,101678.23
2018-11-22T14:05:59.247Z,101674.64
2018-11-22T14:08:29.505Z,101674.02
2018-11-22T14:10:59.322Z,101673.47
2018-11-22T14:13:29.223Z,101673.73
2018-11-22T14:15:59.342Z,101681.51
2018-11-22T14:18:29.172Z,101674.58
2018-11-22T14:20:58.928Z,101676.66
2018-11-22T14:23:28.820Z,101672.35
2018-11-22T14:25:58.799Z,101670.48
2018-11-22T14:28:28.760Z,101669.67
2018-11-22T14:30:58.694Z,101661.48
2018-11-22T14:33:28.505Z,101668.29
2018-11-22T14:35:58.589Z,101663.53
2018-11-22T14:38:28.321Z,101665.70
2018-11-22T14:40:58.424Z,101667.27
2018-11-22T14:43:28.155Z,101667.03
2018-11-22T14:45:58.217Z,101662.78
2018-11-22T14:48:27.972Z,101667.96
2018-11-22T14:51:09.596Z,101659.75
2018-11-22T14:53:39.385Z,101661.55
2018-11-22T14:56:09.712Z,101663.23
2018-11-22T14:58:39.447Z,101663.71
2018-11-22T15:01:09.443Z,101670.09
2018-11-22T15:03:39.212Z,101662.69
2018-11-22T15:06:09.230Z,101661.06
2018-11-22T15:08:39.145Z,101664.02
2018-11-22T15:11:08.995Z,101663.38
2018-11-22T15:13:38.904Z,101658.80
2018-11-22T15:16:08.915Z,101656.39
2018-11-22T15:18:38.710Z,101663.52
2018-11-22T15:21:08.646Z,101660.77
2018-11-22T15:23:38.553Z,101649.61
2018-11-22T15:26:09.992Z,101657.70
2018-11-22T15:28:40.018Z,101652.81
2018-11-22T15:31:09.792Z,101650.37
2018-11-22T15:33:39.650Z,101649.05
2018-11-22T15:36:09.505Z,101651.59
2018-11-22T15:38:39.326Z,101658.20
2018-11-22T15:41:09.052Z,101657.70
2018-11-22T15:43:39.392Z,101658.17
2018-11-22T15:46:09.218Z,101654.37
2018-11-22T15:48:38.917Z,101652.41
2018-11-22T15:51:08.660Z,101654.73
2018-11-22T15:53:38.490Z,101662.73
2018-11-22T15:56:08.465Z,101658.88
2018-11-22T15:58:38.312Z,101664.56
2018-11-22T16:01:08.160Z,101660.60
2018-11-22T16:03:38.248Z,101667.21
2018-11-22T16:06:08.328Z,101665.03
2018-11-22T16:08:38.068Z,101671.95
2018-11-22T16:11:10.888Z,101669.86
2018-11-22T16:13:38.261Z,101674.52
2018-11-22T16:16:08.455Z,101682.11
2018-11-22T16:18:38.336Z,101677.29
2018-11-22T16:21:08.189Z,101683.66
2018-11-22T16:23:38.049Z,101682.30
2018-11-22T16:26:07.951Z,101685.96
2018-11-22T16:28:37.868Z,101690.66
2018-11-22T16:31:08.148Z,101690.16
2018-11-22T16:33:38.643Z,101685.84
2018-11-22T16:36:08.467Z,101688.14
2018-11-22T16:38:38.359Z,101697.34
2018-11-22T16:41:08.237Z,101696.64
2018-11-22T16:43:38.256Z,101690.69
2018-11-22T16:46:08.256Z,101698.81
2018-11-22T16:48:38.251Z,101697.18
2018-11-22T16:51:08.256Z,101693.67
2018-11-22T16:53:38.139Z,101699.19
2018-11-22T16:56:08.127Z,101695.38
2018-11-22T16:58:38.138Z,101700.26
2018-11-22T17:01:08.222Z,101698.05
2018-11-22T17:03:38.005Z,101700.33
2018-11-22T17:06:08.759Z,101696.52
2018-11-22T17:08:38.605Z,101699.34
2018-11-22T17:11:08.516Z,101704.03
2018-11-22T17:13:38.365Z,101699.99
2018-11-22T17:16:08.283Z,101702.96
2018-11-22T17:18:38.098Z,101707.80
2018-11-22T17:21:07.981Z,101706.66
2018-11-22T17:23:37.724Z,101708.20
2018-11-22T17:26:07.683Z,101711.06
2018-11-22T17:28:37.649Z,101713.12
2018-11-22T17:31:07.564Z,101716.77
2018-11-22T17:33:37.322Z,101708.48
2018-11-22T17:36:07.839Z,101715.91
2018-11-22T17:38:37.693Z,101718.48
2018-11-22T17:41:08.207Z,101716.27
2018-11-22T17:43:38.074Z,101717.53
2018-11-22T17:46:08.512Z,101712.70
2018-11-22T17:48:38.601Z,101716.30
2018-11-22T17:51:08.367Z,101716.22
2018-11-22T17:53:38.337Z,101708.02
2018-11-22T17:56:08.209Z,101708.89
2018-11-22T17:58:38.072Z,101719.02
2018-11-22T18:01:14.404Z,101718.15
2018-11-22T18:03:37.968Z,101712.34
2018-11-22T18:06:08.027Z,101723.93
2018-11-22T18:08:37.795Z,101724.21
2018-11-22T18:11:07.568Z,101725.75
2018-11-22T18:13:37.448Z,101719.60
2018-11-22T18:16:07.419Z,101725.61
2018-11-22T18:18:37.315Z,101727.09
2018-11-22T18:21:08.203Z,101729.14
2018-11-22T18:23:38.232Z,101733.59
2018-11-22T18:26:08.209Z,101727.00
2018-11-22T18:28:38.664Z,101735.49
2018-11-22T18:31:08.679Z,101731.85
2018-11-22T18:33:38.562Z,101727.97
2018-11-22T18:36:08.612Z,101729.70
2018-11-22T18:38:38.511Z,101728.37
2018-11-22T18:41:08.416Z,101726.78
2018-11-22T18:43:38.592Z,101734.09
2018-11-22T18:46:08.551Z,101737.33
2018-11-22T18:48:39.411Z,101733.88
2018-11-22T18:51:09.249Z,101730.73
2018-11-22T18:53:39.270Z,101735.41
2018-11-22T18:56:09.170Z,101739.59
2018-11-22T18:58:39.179Z,101736.14
2018-11-22T19:01:09.031Z,101733.81
2018-11-22T19:03:38.910Z,101736.23
2018-11-22T19:06:08.967Z,101735.92
2018-11-22T19:08:39.217Z,101735.13
2018-11-22T19:11:09.070Z,101728.95
2018-11-22T19:13:38.998Z,101732.25
2018-11-22T19:16:08.918Z,101735.17
2018-11-22T19:18:38.684Z,101731.75
2018-11-22T19:21:08.673Z,101733.79
2018-11-22T19:23:38.765Z,101734.61
2018-11-22T19:26:08.641Z,101733.85
2018-11-22T19:28:38.443Z,101730.05
2018-11-22T19:31:08.671Z,101735.11
2018-11-22T19:33:38.438Z,101734.98
2018-11-22T19:36:08.700Z,101732.25
2018-11-22T19:38:39.175Z,101734.23
2018-11-22T19:41:08.946Z,101735.02
2018-11-22T19:43:38.828Z,101733.05
2018-11-22T19:46:08.708Z,101740.08
2018-11-22T19:48:38.590Z,101739.76
2018-11-22T19:51:08.645Z,101738.16
2018-11-22T19:53:38.482Z,101738.44
2018-11-22T19:56:09.783Z,101744.75
2018-11-22T19:58:40.172Z,101741.95
2018-11-22T20:01:09.975Z,101740.36
2018-11-22T20:03:40.447Z,101735.65
2018-11-22T20:06:10.403Z,101739.76
2018-11-22T20:08:40.453Z,101738.13
2018-11-22T20:11:10.459Z,101744.59
2018-11-22T20:13:40.351Z,101737.78
2018-11-22T20:16:10.246Z,101736.09
2018-11-22T20:18:40.081Z,101735.80
2018-11-22T20:21:11.035Z,101738.13
2018-11-22T20:23:41.085Z,101740.98
2018-11-22T20:26:11.099Z,101745.75
2018-11-22T20:28:40.942Z,101751.91
2018-11-22T20:31:10.973Z,101747.35
2018-11-22T20:33:40.929Z,101748.39
2018-11-22T20:36:11.283Z,101750.20
2018-11-22T20:38:41.351Z,101750.42
2018-11-22T20:41:11.456Z,101753.16
2018-11-22T20:43:41.374Z,101755.07
2018-11-22T20:46:11.582Z,101754.88
2018-11-22T20:48:41.443Z,101758.55
2018-11-22T20:51:11.193Z,101756.57
2018-11-22T20:53:41.003Z,101759.48
2018-11-22T20:56:11.351Z,101752.08
2018-11-22T20:58:41.213Z,101746.75
2018-11-22T21:01:11.067Z,101755.16
2018-11-22T21:03:40.920Z,101758.83
2018-11-22T21:06:10.884Z,101752.45
2018-11-22T21:08:48.299Z,101757.25
2018-11-22T21:11:10.742Z,101753.99
2018-11-22T21:13:40.675Z,101757.03
2018-11-22T21:16:11.192Z,101749.34
2018-11-22T21:18:41.289Z,101751.69
2018-11-22T21:21:11.277Z,101755.48
2018-11-22T21:23:41.272Z,101754.23
2018-11-22T21:26:14.411Z,101754.38
2018-11-22T21:28:40.998Z,101760.44
2018-11-22T21:31:10.871Z,101760.66
2018-11-22T21:33:41.021Z,101757.14
2018-11-22T21:36:10.919Z,101756.64
2018-11-22T21:38:41.011Z,101752.37
2018-11-22T21:41:10.883Z,101750.98
2018-11-22T21:43:40.854Z,101746.81
2018-11-22T21:46:10.790Z,101743.62
2018-11-22T21:48:40.562Z,101744.73
2018-11-22T21:51:10.632Z,101740.52
2018-11-22T21:53:40.629Z,101744.40
2018-11-22T21:56:10.601Z,101741.45
2018-11-22T21:58:40.361Z,101741.98
2018-11-22T22:01:10.841Z,101747.25
2018-11-22T22:03:40.763Z,101740.28
2018-11-22T22:06:10.518Z,101745.02
2018-11-22T22:08:40.407Z,101736.11
2018-11-22T22:11:10.192Z,101733.16
2018-11-22T22:13:40.010Z,101740.06
2018-11-22T22:16:09.911Z,101738.25
2018-11-22T22:18:39.828Z,101740.06
2018-11-22T22:21:09.876Z,101736.33
2018-11-22T22:23:39.722Z,101736.02
2018-11-22T22:26:09.664Z,101737.27
2018-11-22T22:28:39.408Z,101740.61
2018-11-22T22:31:09.296Z,101737.91
2018-11-22T22:33:39.500Z,101736.93
2018-11-22T22:36:09.301Z,101741.16
2018-11-22T22:38:39.188Z,101745.43
2018-11-22T22:41:09.179Z,101746.93
2018-11-22T22:43:39.224Z,101744.23
2018-11-22T22:46:09.331Z,101748.30
2018-11-22T22:48:39.123Z,101749.22
2018-11-22T22:51:08.983Z,101749.92
2018-11-22T22:53:39.014Z,101752.95
2018-11-22T22:56:09.513Z,101753.70
2018-11-22T22:58:39.412Z,101751.36
2018-11-22T23:01:09.364Z,101746.30
2018-11-22T23:03:39.187Z,101744.89
2018-11-22T23:06:09.114Z,101748.27
2018-11-22T23:08:39.051Z,101749.04
2018-11-22T23:11:08.763Z,101741.64
2018-11-22T23:13:38.708Z,101750.25
2018-11-22T23:16:08.615Z,101748.66
2018-11-22T23:18:38.499Z,101755.63
2018-11-22T23:21:09.012Z,101748.01
2018-11-22T23:23:38.778Z,101754.16
2018-11-22T23:26:08.668Z,101750.64
2018-11-22T23:28:38.375Z,101748.44
2018-11-22T23:31:08.155Z,101743.77
2018-11-22T23:33:37.899Z,101744.98
2018-11-22T23:36:07.642Z,101747.02
2018-11-22T23:38:37.361Z,101744.89
2018-11-22T23:41:07.332Z,101754.31
2018-11-22T23:43:37.058Z,101740.37
2018-11-22T23:46:07.327Z,101746.17
2018-11-22T23:48:37.132Z,101733.08
2018-11-22T23:51:07.038Z,101742.13
2018-11-22T23:53:36.750Z,101736.08
2018-11-22T23:56:07.055Z,101736.08
2018-11-22T23:58:36.812Z,101742.09
